UGI weather

San Juan /Uganik/ Seaplane Base
San Juan, Alaska, United States

Public forecast

Using degrees Fahrenheit for public forecast. Weather courtesy of forecast.io.

Closest aviation weather report (METAR) to San Juan /Uganik/ Seaplane Base

Closest report is Kodiak Airport, 26.5 nm (49.1 km) E. Retrieved 2020/04/02 04:53 UTC (41 minutes ago):

PADQ 020453Z 11009KT 10SM -RA BKN020 OVC043 04/02 A3018

Closest aviation forecast (TAF) to San Juan /Uganik/ Seaplane Base

Closest forecast is Kodiak Airport, 26.5 nm (49.1 km) E. Retrieved 2020-04-02 00:42 UTC (5 hours ago):

TAF PADQ 012340Z 0200/0224 10009KT 5SM -RA BR BKN009 OVC015 TEMPO 0200/0204 SCT009 BKN015 FM022300 11005KT 3SM -RA BR BKN007 OVC010